sensor_id;sensor_type;location;lat;lon;timestamp;P1;durP1;ratioP1;P2;durP2;ratioP2
45033;SDS011;30771;47.988;-4.186;2024-03-06T00:02:05;34.10;;;11.25;;
45033;SDS011;30771;47.988;-4.186;2024-03-06T00:04:34;36.85;;;10.52;;
45033;SDS011;30771;47.988;-4.186;2024-03-06T00:07:00;41.22;;;11.27;;
45033;SDS011;30771;47.988;-4.186;2024-03-06T00:09:27;31.88;;;11.23;;
45033;SDS011;30771;47.988;-4.186;2024-03-06T00:11:57;42.63;;;11.43;;
45033;SDS011;30771;47.988;-4.186;2024-03-06T00:14:24;41.65;;;10.70;;
45033;SDS011;30771;47.988;-4.186;2024-03-06T00:16:51;37.92;;;10.20;;
45033;SDS011;30771;47.988;-4.186;2024-03-06T00:19:18;33.10;;;10.63;;
45033;SDS011;30771;47.988;-4.186;2024-03-06T00:21:45;38.00;;;10.20;;
45033;SDS011;30771;47.988;-4.186;2024-03-06T00:24:12;34.60;;;10.68;;
45033;SDS011;30771;47.988;-4.186;2024-03-06T00:26:40;32.25;;;10.63;;
45033;SDS011;30771;47.988;-4.186;2024-03-06T00:29:08;39.53;;;9.63;;
45033;SDS011;30771;47.988;-4.186;2024-03-06T00:31:35;39.28;;;11.65;;
45033;SDS011;30771;47.988;-4.186;2024-03-06T00:34:03;33.92;;;11.15;;
45033;SDS011;30771;47.988;-4.186;2024-03-06T00:36:31;38.97;;;14.57;;
45033;SDS011;30771;47.988;-4.186;2024-03-06T00:38:57;39.05;;;10.90;;
45033;SDS011;30771;47.988;-4.186;2024-03-06T00:41:24;34.33;;;10.75;;
45033;SDS011;30771;47.988;-4.186;2024-03-06T00:43:52;33.90;;;12.45;;
45033;SDS011;30771;47.988;-4.186;2024-03-06T00:46:19;31.35;;;10.13;;
45033;SDS011;30771;47.988;-4.186;2024-03-06T00:48:46;31.40;;;10.70;;
45033;SDS011;30771;47.988;-4.186;2024-03-06T00:51:13;28.45;;;9.70;;
45033;SDS011;30771;47.988;-4.186;2024-03-06T00:53:40;31.20;;;10.48;;
45033;SDS011;30771;47.988;-4.186;2024-03-06T00:56:07;33.42;;;10.68;;
45033;SDS011;30771;47.988;-4.186;2024-03-06T00:58:34;33.38;;;10.93;;
45033;SDS011;30771;47.988;-4.186;2024-03-06T01:01:01;26.77;;;10.23;;
45033;SDS011;30771;47.988;-4.186;2024-03-06T01:03:27;32.55;;;11.27;;
45033;SDS011;30771;47.988;-4.186;2024-03-06T01:05:55;34.78;;;10.80;;
45033;SDS011;30771;47.988;-4.186;2024-03-06T01:08:22;30.75;;;11.32;;
45033;SDS011;30771;47.988;-4.186;2024-03-06T01:10:51;34.13;;;10.52;;
45033;SDS011;30771;47.988;-4.186;2024-03-06T01:13:19;40.95;;;10.70;;
45033;SDS011;30771;47.988;-4.186;2024-03-06T01:15:46;32.85;;;9.07;;
45033;SDS011;30771;47.988;-4.186;2024-03-06T01:18:13;35.97;;;10.80;;
45033;SDS011;30771;47.988;-4.186;2024-03-06T01:20:39;30.00;;;9.30;;
45033;SDS011;30771;47.988;-4.186;2024-03-06T01:23:07;27.52;;;9.43;;
45033;SDS011;30771;47.988;-4.186;2024-03-06T01:25:34;35.08;;;10.15;;
45033;SDS011;30771;47.988;-4.186;2024-03-06T01:28:01;32.92;;;11.25;;
45033;SDS011;30771;47.988;-4.186;2024-03-06T01:30:28;31.63;;;10.33;;
45033;SDS011;30771;47.988;-4.186;2024-03-06T01:32:55;36.33;;;10.88;;
45033;SDS011;30771;47.988;-4.186;2024-03-06T01:35:22;28.52;;;9.23;;
45033;SDS011;30771;47.988;-4.186;2024-03-06T01:37:50;32.28;;;9.32;;
45033;SDS011;30771;47.988;-4.186;2024-03-06T01:40:17;37.80;;;10.40;;
45033;SDS011;30771;47.988;-4.186;2024-03-06T01:42:45;34.90;;;10.68;;
45033;SDS011;30771;47.988;-4.186;2024-03-06T01:45:13;29.08;;;9.25;;
45033;SDS011;30771;47.988;-4.186;2024-03-06T01:47:40;30.75;;;9.38;;
45033;SDS011;30771;47.988;-4.186;2024-03-06T01:50:07;33.55;;;11.00;;
45033;SDS011;30771;47.988;-4.186;2024-03-06T01:52:36;26.83;;;10.05;;
45033;SDS011;30771;47.988;-4.186;2024-03-06T01:55:06;31.58;;;9.38;;
45033;SDS011;30771;47.988;-4.186;2024-03-06T01:57:34;27.35;;;8.73;;
45033;SDS011;30771;47.988;-4.186;2024-03-06T02:00:01;38.90;;;9.70;;
45033;SDS011;30771;47.988;-4.186;2024-03-06T02:04:56;31.15;;;8.32;;
45033;SDS011;30771;47.988;-4.186;2024-03-06T02:07:26;32.33;;;8.48;;
45033;SDS011;30771;47.988;-4.186;2024-03-06T02:09:55;38.15;;;9.73;;
45033;SDS011;30771;47.988;-4.186;2024-03-06T02:12:22;38.42;;;8.68;;
45033;SDS011;30771;47.988;-4.186;2024-03-06T02:14:49;27.02;;;7.90;;
45033;SDS011;30771;47.988;-4.186;2024-03-06T02:17:16;35.13;;;8.65;;
45033;SDS011;30771;47.988;-4.186;2024-03-06T02:19:43;28.40;;;8.40;;
45033;SDS011;30771;47.988;-4.186;2024-03-06T02:22:10;25.58;;;7.85;;
45033;SDS011;30771;47.988;-4.186;2024-03-06T02:24:38;28.70;;;7.93;;
45033;SDS011;30771;47.988;-4.186;2024-03-06T02:27:07;22.52;;;7.32;;
45033;SDS011;30771;47.988;-4.186;2024-03-06T02:29:34;26.55;;;7.53;;
45033;SDS011;30771;47.988;-4.186;2024-03-06T02:32:01;31.17;;;8.38;;
45033;SDS011;30771;47.988;-4.186;2024-03-06T02:34:30;30.52;;;7.95;;
45033;SDS011;30771;47.988;-4.186;2024-03-06T02:36:57;28.42;;;6.97;;
45033;SDS011;30771;47.988;-4.186;2024-03-06T02:39:24;31.42;;;7.40;;
45033;SDS011;30771;47.988;-4.186;2024-03-06T02:41:50;26.00;;;7.80;;
45033;SDS011;30771;47.988;-4.186;2024-03-06T02:44:17;33.88;;;7.60;;
45033;SDS011;30771;47.988;-4.186;2024-03-06T02:46:48;34.55;;;8.10;;
45033;SDS011;30771;47.988;-4.186;2024-03-06T02:49:15;22.85;;;7.28;;
45033;SDS011;30771;47.988;-4.186;2024-03-06T02:51:44;27.10;;;7.80;;
45033;SDS011;30771;47.988;-4.186;2024-03-06T02:54:11;32.50;;;8.75;;
45033;SDS011;30771;47.988;-4.186;2024-03-06T02:56:38;30.73;;;8.27;;
45033;SDS011;30771;47.988;-4.186;2024-03-06T02:59:05;34.40;;;8.73;;
45033;SDS011;30771;47.988;-4.186;2024-03-06T03:01:31;29.48;;;8.90;;
45033;SDS011;30771;47.988;-4.186;2024-03-06T03:03:59;29.83;;;7.65;;
45033;SDS011;30771;47.988;-4.186;2024-03-06T03:06:26;26.95;;;8.73;;
45033;SDS011;30771;47.988;-4.186;2024-03-06T03:08:52;26.83;;;8.73;;
45033;SDS011;30771;47.988;-4.186;2024-03-06T03:11:19;29.27;;;7.70;;
45033;SDS011;30771;47.988;-4.186;2024-03-06T03:13:46;37.00;;;8.55;;
45033;SDS011;30771;47.988;-4.186;2024-03-06T03:16:16;33.63;;;8.50;;
45033;SDS011;30771;47.988;-4.186;2024-03-06T03:18:44;33.55;;;8.63;;
45033;SDS011;30771;47.988;-4.186;2024-03-06T03:21:11;30.80;;;8.32;;
45033;SDS011;30771;47.988;-4.186;2024-03-06T03:23:39;35.65;;;8.68;;
45033;SDS011;30771;47.988;-4.186;2024-03-06T03:26:07;31.35;;;9.20;;
45033;SDS011;30771;47.988;-4.186;2024-03-06T03:28:39;34.38;;;8.43;;
45033;SDS011;30771;47.988;-4.186;2024-03-06T03:31:07;33.42;;;7.75;;
45033;SDS011;30771;47.988;-4.186;2024-03-06T03:33:44;33.22;;;8.48;;
45033;SDS011;30771;47.988;-4.186;2024-03-06T03:36:11;37.80;;;8.85;;
45033;SDS011;30771;47.988;-4.186;2024-03-06T03:38:38;38.72;;;9.43;;
45033;SDS011;30771;47.988;-4.186;2024-03-06T03:41:11;30.90;;;9.25;;
45033;SDS011;30771;47.988;-4.186;2024-03-06T03:43:43;34.95;;;9.55;;
45033;SDS011;30771;47.988;-4.186;2024-03-06T03:46:10;34.28;;;9.20;;
45033;SDS011;30771;47.988;-4.186;2024-03-06T03:48:36;41.95;;;10.05;;
45033;SDS011;30771;47.988;-4.186;2024-03-06T03:51:04;32.38;;;8.85;;
45033;SDS011;30771;47.988;-4.186;2024-03-06T03:53:34;28.45;;;9.90;;
45033;SDS011;30771;47.988;-4.186;2024-03-06T03:56:01;34.05;;;9.80;;
45033;SDS011;30771;47.988;-4.186;2024-03-06T03:58:30;35.17;;;9.40;;
45033;SDS011;30771;47.988;-4.186;2024-03-06T04:00:56;38.55;;;10.32;;
45033;SDS011;30771;47.988;-4.186;2024-03-06T04:03:23;28.88;;;9.50;;
45033;SDS011;30771;47.988;-4.186;2024-03-06T04:05:51;40.00;;;10.25;;
45033;SDS011;30771;47.988;-4.186;2024-03-06T04:08:18;28.75;;;11.10;;
45033;SDS011;30771;47.988;-4.186;2024-03-06T04:10:44;35.05;;;10.88;;
45033;SDS011;30771;47.988;-4.186;2024-03-06T04:13:12;28.00;;;11.18;;
45033;SDS011;30771;47.988;-4.186;2024-03-06T04:15:39;28.50;;;10.75;;
45033;SDS011;30771;47.988;-4.186;2024-03-06T04:18:06;31.85;;;11.02;;
45033;SDS011;30771;47.988;-4.186;2024-03-06T04:20:33;29.35;;;10.20;;
45033;SDS011;30771;47.988;-4.186;2024-03-06T04:23:01;29.15;;;9.90;;
45033;SDS011;30771;47.988;-4.186;2024-03-06T04:25:28;30.15;;;10.73;;
45033;SDS011;30771;47.988;-4.186;2024-03-06T04:27:55;33.70;;;10.43;;
45033;SDS011;30771;47.988;-4.186;2024-03-06T04:30:22;25.35;;;10.23;;
45033;SDS011;30771;47.988;-4.186;2024-03-06T04:32:49;20.08;;;8.98;;
45033;SDS011;30771;47.988;-4.186;2024-03-06T04:35:16;21.92;;;8.82;;
45033;SDS011;30771;47.988;-4.186;2024-03-06T04:37:43;18.00;;;8.43;;
45033;SDS011;30771;47.988;-4.186;2024-03-06T04:40:10;20.35;;;8.73;;
45033;SDS011;30771;47.988;-4.186;2024-03-06T04:42:38;17.55;;;8.43;;
45033;SDS011;30771;47.988;-4.186;2024-03-06T04:45:14;20.25;;;8.75;;
45033;SDS011;30771;47.988;-4.186;2024-03-06T04:47:43;17.08;;;8.13;;
45033;SDS011;30771;47.988;-4.186;2024-03-06T04:50:10;20.45;;;8.75;;
45033;SDS011;30771;47.988;-4.186;2024-03-06T04:52:38;19.77;;;8.30;;
45033;SDS011;30771;47.988;-4.186;2024-03-06T04:55:05;23.85;;;8.38;;
45033;SDS011;30771;47.988;-4.186;2024-03-06T04:57:34;16.80;;;8.57;;
45033;SDS011;30771;47.988;-4.186;2024-03-06T05:00:01;18.35;;;8.63;;
45033;SDS011;30771;47.988;-4.186;2024-03-06T05:02:32;14.98;;;8.18;;
45033;SDS011;30771;47.988;-4.186;2024-03-06T05:05:18;17.80;;;8.63;;
45033;SDS011;30771;47.988;-4.186;2024-03-06T05:08:02;24.40;;;9.43;;
45033;SDS011;30771;47.988;-4.186;2024-03-06T05:10:46;18.52;;;7.85;;
45033;SDS011;30771;47.988;-4.186;2024-03-06T05:13:30;32.17;;;8.60;;
45033;SDS011;30771;47.988;-4.186;2024-03-06T05:16:15;17.60;;;8.55;;
45033;SDS011;30771;47.988;-4.186;2024-03-06T05:18:58;27.38;;;9.80;;
45033;SDS011;30771;47.988;-4.186;2024-03-06T05:21:42;38.50;;;10.70;;
45033;SDS011;30771;47.988;-4.186;2024-03-06T05:24:27;32.83;;;9.88;;
45033;SDS011;30771;47.988;-4.186;2024-03-06T05:27:11;54.70;;;10.10;;
45033;SDS011;30771;47.988;-4.186;2024-03-06T05:32:44;21.55;;;8.85;;
45033;SDS011;30771;47.988;-4.186;2024-03-06T05:35:31;24.83;;;9.48;;
45033;SDS011;30771;47.988;-4.186;2024-03-06T05:38:15;17.15;;;9.20;;
45033;SDS011;30771;47.988;-4.186;2024-03-06T05:40:59;17.08;;;8.68;;
45033;SDS011;30771;47.988;-4.186;2024-03-06T05:43:43;37.90;;;10.35;;
45033;SDS011;30771;47.988;-4.186;2024-03-06T05:46:27;30.23;;;10.55;;
45033;SDS011;30771;47.988;-4.186;2024-03-06T05:49:11;25.27;;;9.65;;
45033;SDS011;30771;47.988;-4.186;2024-03-06T05:51:56;39.72;;;10.70;;
45033;SDS011;30771;47.988;-4.186;2024-03-06T05:54:39;52.38;;;10.90;;
45033;SDS011;30771;47.988;-4.186;2024-03-06T05:57:24;48.92;;;10.73;;
45033;SDS011;30771;47.988;-4.186;2024-03-06T06:00:08;48.55;;;11.60;;
45033;SDS011;30771;47.988;-4.186;2024-03-06T06:02:38;77.40;;;12.43;;
45033;SDS011;30771;47.988;-4.186;2024-03-06T06:05:05;72.53;;;11.95;;
45033;SDS011;30771;47.988;-4.186;2024-03-06T06:07:48;49.55;;;11.77;;
45033;SDS011;30771;47.988;-4.186;2024-03-06T06:10:16;42.83;;;12.07;;
45033;SDS011;30771;47.988;-4.186;2024-03-06T06:12:47;87.45;;;14.38;;
45033;SDS011;30771;47.988;-4.186;2024-03-06T06:15:14;121.70;;;12.75;;
45033;SDS011;30771;47.988;-4.186;2024-03-06T06:17:42;78.53;;;13.38;;
45033;SDS011;30771;47.988;-4.186;2024-03-06T06:20:11;108.07;;;14.82;;
45033;SDS011;30771;47.988;-4.186;2024-03-06T06:22:43;85.53;;;12.55;;
45033;SDS011;30771;47.988;-4.186;2024-03-06T06:25:11;145.93;;;14.13;;
45033;SDS011;30771;47.988;-4.186;2024-03-06T06:27:39;97.20;;;14.07;;
45033;SDS011;30771;47.988;-4.186;2024-03-06T06:30:06;75.95;;;13.02;;
45033;SDS011;30771;47.988;-4.186;2024-03-06T06:32:38;102.25;;;13.77;;
45033;SDS011;30771;47.988;-4.186;2024-03-06T06:35:08;131.80;;;14.50;;
45033;SDS011;30771;47.988;-4.186;2024-03-06T06:37:36;148.43;;;16.25;;
45033;SDS011;30771;47.988;-4.186;2024-03-06T06:40:03;152.02;;;15.60;;
45033;SDS011;30771;47.988;-4.186;2024-03-06T06:42:33;141.40;;;14.93;;
45033;SDS011;30771;47.988;-4.186;2024-03-06T06:45:01;119.75;;;14.98;;
45033;SDS011;30771;47.988;-4.186;2024-03-06T06:47:30;141.38;;;15.77;;
45033;SDS011;30771;47.988;-4.186;2024-03-06T06:49:57;167.18;;;19.02;;
45033;SDS011;30771;47.988;-4.186;2024-03-06T06:52:24;192.52;;;17.33;;
45033;SDS011;30771;47.988;-4.186;2024-03-06T06:54:54;177.75;;;18.48;;
45033;SDS011;30771;47.988;-4.186;2024-03-06T06:57:21;165.57;;;19.08;;
45033;SDS011;30771;47.988;-4.186;2024-03-06T06:59:47;108.03;;;15.95;;
45033;SDS011;30771;47.988;-4.186;2024-03-06T07:02:14;110.97;;;16.17;;
45033;SDS011;30771;47.988;-4.186;2024-03-06T07:04:41;97.90;;;16.65;;
45033;SDS011;30771;47.988;-4.186;2024-03-06T07:07:08;137.43;;;18.85;;
45033;SDS011;30771;47.988;-4.186;2024-03-06T07:09:34;120.68;;;17.30;;
45033;SDS011;30771;47.988;-4.186;2024-03-06T07:12:01;144.90;;;18.45;;
45033;SDS011;30771;47.988;-4.186;2024-03-06T07:14:29;181.43;;;21.50;;
45033;SDS011;30771;47.988;-4.186;2024-03-06T07:16:56;198.45;;;20.80;;
45033;SDS011;30771;47.988;-4.186;2024-03-06T07:19:23;166.98;;;19.23;;
45033;SDS011;30771;47.988;-4.186;2024-03-06T07:21:49;193.20;;;21.45;;
45033;SDS011;30771;47.988;-4.186;2024-03-06T07:24:16;76.35;;;17.20;;
45033;SDS011;30771;47.988;-4.186;2024-03-06T07:26:43;140.15;;;21.38;;
45033;SDS011;30771;47.988;-4.186;2024-03-06T07:29:10;123.68;;;20.02;;
45033;SDS011;30771;47.988;-4.186;2024-03-06T07:31:41;151.48;;;22.23;;
45033;SDS011;30771;47.988;-4.186;2024-03-06T07:34:08;199.27;;;21.55;;
45033;SDS011;30771;47.988;-4.186;2024-03-06T07:36:35;148.55;;;21.33;;
45033;SDS011;30771;47.988;-4.186;2024-03-06T07:39:02;144.23;;;20.83;;
45033;SDS011;30771;47.988;-4.186;2024-03-06T07:41:30;119.40;;;20.30;;
45033;SDS011;30771;47.988;-4.186;2024-03-06T07:43:59;115.22;;;21.33;;
45033;SDS011;30771;47.988;-4.186;2024-03-06T07:46:26;157.77;;;21.40;;
45033;SDS011;30771;47.988;-4.186;2024-03-06T07:48:53;124.93;;;20.70;;
45033;SDS011;30771;47.988;-4.186;2024-03-06T07:51:20;111.20;;;19.95;;
45033;SDS011;30771;47.988;-4.186;2024-03-06T07:53:47;142.95;;;19.50;;
45033;SDS011;30771;47.988;-4.186;2024-03-06T07:56:15;71.40;;;18.52;;
45033;SDS011;30771;47.988;-4.186;2024-03-06T07:58:42;108.38;;;19.58;;
45033;SDS011;30771;47.988;-4.186;2024-03-06T08:01:09;101.65;;;18.95;;
45033;SDS011;30771;47.988;-4.186;2024-03-06T08:03:38;78.30;;;17.02;;
45033;SDS011;30771;47.988;-4.186;2024-03-06T08:08:33;97.65;;;17.75;;
45033;SDS011;30771;47.988;-4.186;2024-03-06T08:10:59;67.88;;;17.17;;
45033;SDS011;30771;47.988;-4.186;2024-03-06T08:13:27;80.80;;;16.83;;
45033;SDS011;30771;47.988;-4.186;2024-03-06T08:15:54;69.55;;;18.10;;
45033;SDS011;30771;47.988;-4.186;2024-03-06T08:18:20;86.80;;;17.80;;
45033;SDS011;30771;47.988;-4.186;2024-03-06T08:20:47;53.10;;;15.35;;
45033;SDS011;30771;47.988;-4.186;2024-03-06T08:23:15;49.50;;;14.35;;
45033;SDS011;30771;47.988;-4.186;2024-03-06T08:25:41;40.72;;;14.00;;
45033;SDS011;30771;47.988;-4.186;2024-03-06T08:28:08;35.72;;;12.95;;
45033;SDS011;30771;47.988;-4.186;2024-03-06T08:30:36;27.02;;;11.93;;
45033;SDS011;30771;47.988;-4.186;2024-03-06T08:33:03;23.63;;;11.07;;
45033;SDS011;30771;47.988;-4.186;2024-03-06T08:35:30;26.25;;;11.75;;
45033;SDS011;30771;47.988;-4.186;2024-03-06T08:37:57;36.40;;;11.93;;
45033;SDS011;30771;47.988;-4.186;2024-03-06T08:40:24;50.55;;;12.48;;
45033;SDS011;30771;47.988;-4.186;2024-03-06T08:42:52;36.28;;;12.25;;
45033;SDS011;30771;47.988;-4.186;2024-03-06T08:45:19;43.28;;;12.73;;
45033;SDS011;30771;47.988;-4.186;2024-03-06T08:47:46;19.88;;;11.10;;
45033;SDS011;30771;47.988;-4.186;2024-03-06T08:50:16;38.97;;;11.73;;
45033;SDS011;30771;47.988;-4.186;2024-03-06T08:52:44;47.65;;;11.77;;
45033;SDS011;30771;47.988;-4.186;2024-03-06T08:55:12;29.15;;;10.40;;
45033;SDS011;30771;47.988;-4.186;2024-03-06T08:57:39;64.90;;;11.30;;
45033;SDS011;30771;47.988;-4.186;2024-03-06T09:00:07;38.58;;;11.02;;
45033;SDS011;30771;47.988;-4.186;2024-03-06T09:02:38;50.90;;;11.75;;
45033;SDS011;30771;47.988;-4.186;2024-03-06T09:05:06;50.40;;;10.95;;
45033;SDS011;30771;47.988;-4.186;2024-03-06T09:07:34;90.68;;;12.45;;
45033;SDS011;30771;47.988;-4.186;2024-03-06T09:10:08;50.90;;;10.90;;
45033;SDS011;30771;47.988;-4.186;2024-03-06T09:15:04;122.13;;;13.43;;
45033;SDS011;30771;47.988;-4.186;2024-03-06T09:17:34;76.28;;;13.07;;
45033;SDS011;30771;47.988;-4.186;2024-03-06T09:20:01;149.93;;;15.40;;
45033;SDS011;30771;47.988;-4.186;2024-03-06T09:22:38;217.73;;;16.42;;
45033;SDS011;30771;47.988;-4.186;2024-03-06T09:25:06;75.20;;;13.18;;
45033;SDS011;30771;47.988;-4.186;2024-03-06T09:27:34;99.07;;;15.48;;
45033;SDS011;30771;47.988;-4.186;2024-03-06T09:30:02;253.73;;;20.05;;
45033;SDS011;30771;47.988;-4.186;2024-03-06T09:32:32;205.57;;;17.60;;
45033;SDS011;30771;47.988;-4.186;2024-03-06T09:34:59;84.72;;;15.63;;
45033;SDS011;30771;47.988;-4.186;2024-03-06T09:37:27;114.38;;;15.68;;
45033;SDS011;30771;47.988;-4.186;2024-03-06T09:39:54;266.15;;;21.00;;
45033;SDS011;30771;47.988;-4.186;2024-03-06T09:42:23;121.13;;;17.25;;
45033;SDS011;30771;47.988;-4.186;2024-03-06T09:44:50;153.20;;;15.38;;
45033;SDS011;30771;47.988;-4.186;2024-03-06T09:47:19;152.95;;;18.58;;
45033;SDS011;30771;47.988;-4.186;2024-03-06T09:49:53;68.10;;;16.30;;
45033;SDS011;30771;47.988;-4.186;2024-03-06T09:52:21;145.60;;;16.67;;
45033;SDS011;30771;47.988;-4.186;2024-03-06T09:54:53;146.40;;;14.18;;
45033;SDS011;30771;47.988;-4.186;2024-03-06T09:57:20;77.50;;;13.52;;
45033;SDS011;30771;47.988;-4.186;2024-03-06T09:59:47;96.50;;;15.77;;
45033;SDS011;30771;47.988;-4.186;2024-03-06T10:02:57;83.50;;;17.58;;
45033;SDS011;30771;47.988;-4.186;2024-03-06T10:05:20;111.13;;;27.05;;
45033;SDS011;30771;47.988;-4.186;2024-03-06T10:07:49;53.83;;;18.38;;
45033;SDS011;30771;47.988;-4.186;2024-03-06T10:10:18;33.88;;;16.13;;
45033;SDS011;30771;47.988;-4.186;2024-03-06T10:12:46;67.65;;;20.73;;
45033;SDS011;30771;47.988;-4.186;2024-03-06T10:15:14;43.92;;;23.42;;
45033;SDS011;30771;47.988;-4.186;2024-03-06T10:17:41;40.38;;;23.17;;
45033;SDS011;30771;47.988;-4.186;2024-03-06T10:22:47;69.75;;;40.17;;
45033;SDS011;30771;47.988;-4.186;2024-03-06T10:25:19;83.90;;;50.45;;
45033;SDS011;30771;47.988;-4.186;2024-03-06T10:30:34;35.33;;;24.35;;
45033;SDS011;30771;47.988;-4.186;2024-03-06T10:33:03;25.23;;;15.32;;
45033;SDS011;30771;47.988;-4.186;2024-03-06T10:38:05;30.88;;;18.48;;
45033;SDS011;30771;47.988;-4.186;2024-03-06T10:40:33;37.80;;;18.67;;
45033;SDS011;30771;47.988;-4.186;2024-03-06T10:43:02;25.02;;;17.23;;
45033;SDS011;30771;47.988;-4.186;2024-03-06T10:48:11;30.15;;;19.42;;
45033;SDS011;30771;47.988;-4.186;2024-03-06T10:50:40;24.35;;;15.25;;
45033;SDS011;30771;47.988;-4.186;2024-03-06T10:53:13;22.63;;;12.10;;
45033;SDS011;30771;47.988;-4.186;2024-03-06T10:55:47;19.20;;;11.43;;
45033;SDS011;30771;47.988;-4.186;2024-03-06T10:58:15;33.75;;;18.35;;
45033;SDS011;30771;47.988;-4.186;2024-03-06T11:00:46;24.38;;;11.63;;
45033;SDS011;30771;47.988;-4.186;2024-03-06T11:03:14;19.50;;;12.80;;
45033;SDS011;30771;47.988;-4.186;2024-03-06T11:05:43;27.25;;;11.88;;
45033;SDS011;30771;47.988;-4.186;2024-03-06T11:08:13;18.08;;;10.20;;
45033;SDS011;30771;47.988;-4.186;2024-03-06T11:10:42;18.02;;;9.88;;
45033;SDS011;30771;47.988;-4.186;2024-03-06T11:13:22;30.43;;;20.73;;
45033;SDS011;30771;47.988;-4.186;2024-03-06T11:15:51;18.40;;;10.77;;
45033;SDS011;30771;47.988;-4.186;2024-03-06T11:26:42;18.50;;;7.97;;
45033;SDS011;30771;47.988;-4.186;2024-03-06T11:29:15;16.45;;;7.65;;
45033;SDS011;30771;47.988;-4.186;2024-03-06T11:32:02;19.48;;;9.23;;
45033;SDS011;30771;47.988;-4.186;2024-03-06T11:34:35;16.98;;;6.88;;
45033;SDS011;30771;47.988;-4.186;2024-03-06T11:37:03;16.15;;;6.50;;
45033;SDS011;30771;47.988;-4.186;2024-03-06T11:39:34;12.05;;;5.55;;
45033;SDS011;30771;47.988;-4.186;2024-03-06T11:42:03;19.85;;;6.47;;
45033;SDS011;30771;47.988;-4.186;2024-03-06T11:44:41;18.20;;;6.25;;
45033;SDS011;30771;47.988;-4.186;2024-03-06T11:47:20;14.65;;;7.35;;
45033;SDS011;30771;47.988;-4.186;2024-03-06T11:49:47;12.32;;;6.22;;
45033;SDS011;30771;47.988;-4.186;2024-03-06T11:52:14;11.75;;;6.50;;
45033;SDS011;30771;47.988;-4.186;2024-03-06T11:54:41;12.63;;;5.10;;
45033;SDS011;30771;47.988;-4.186;2024-03-06T11:57:07;11.60;;;4.72;;
45033;SDS011;30771;47.988;-4.186;2024-03-06T12:02:06;10.45;;;4.93;;
45033;SDS011;30771;47.988;-4.186;2024-03-06T12:04:34;10.23;;;4.07;;
45033;SDS011;30771;47.988;-4.186;2024-03-06T12:07:05;12.60;;;5.20;;
45033;SDS011;30771;47.988;-4.186;2024-03-06T12:09:33;11.98;;;3.50;;
45033;SDS011;30771;47.988;-4.186;2024-03-06T12:12:07;17.20;;;5.28;;
45033;SDS011;30771;47.988;-4.186;2024-03-06T12:14:35;10.20;;;4.03;;
45033;SDS011;30771;47.988;-4.186;2024-03-06T12:17:02;12.88;;;4.10;;
45033;SDS011;30771;47.988;-4.186;2024-03-06T12:19:35;11.57;;;4.22;;
45033;SDS011;30771;47.988;-4.186;2024-03-06T12:22:05;18.92;;;4.82;;
45033;SDS011;30771;47.988;-4.186;2024-03-06T12:24:33;12.55;;;3.83;;
45033;SDS011;30771;47.988;-4.186;2024-03-06T12:27:03;13.55;;;3.17;;
45033;SDS011;30771;47.988;-4.186;2024-03-06T12:29:32;13.60;;;3.58;;
45033;SDS011;30771;47.988;-4.186;2024-03-06T12:32:04;17.42;;;4.97;;
45033;SDS011;30771;47.988;-4.186;2024-03-06T12:34:55;10.98;;;3.50;;
45033;SDS011;30771;47.988;-4.186;2024-03-06T12:37:28;14.38;;;4.25;;
45033;SDS011;30771;47.988;-4.186;2024-03-06T12:39:59;6.60;;;1.70;;
45033;SDS011;30771;47.988;-4.186;2024-03-06T12:42:40;4.82;;;1.38;;
45033;SDS011;30771;47.988;-4.186;2024-03-06T12:45:07;11.65;;;7.03;;
45033;SDS011;30771;47.988;-4.186;2024-03-06T12:47:35;6.65;;;1.60;;
45033;SDS011;30771;47.988;-4.186;2024-03-06T12:50:01;4.95;;;1.30;;
45033;SDS011;30771;47.988;-4.186;2024-03-06T12:52:28;13.60;;;2.28;;
45033;SDS011;30771;47.988;-4.186;2024-03-06T12:54:55;6.72;;;1.50;;
45033;SDS011;30771;47.988;-4.186;2024-03-06T12:57:22;11.98;;;2.08;;
45033;SDS011;30771;47.988;-4.186;2024-03-06T12:59:49;8.88;;;1.80;;
45033;SDS011;30771;47.988;-4.186;2024-03-06T13:02:16;10.80;;;2.28;;
45033;SDS011;30771;47.988;-4.186;2024-03-06T13:04:43;15.25;;;3.15;;
45033;SDS011;30771;47.988;-4.186;2024-03-06T13:07:10;17.88;;;2.85;;
45033;SDS011;30771;47.988;-4.186;2024-03-06T13:09:37;17.25;;;3.03;;
45033;SDS011;30771;47.988;-4.186;2024-03-06T13:12:04;18.52;;;3.42;;
45033;SDS011;30771;47.988;-4.186;2024-03-06T13:14:32;22.30;;;4.05;;
45033;SDS011;30771;47.988;-4.186;2024-03-06T13:16:59;20.20;;;4.63;;
45033;SDS011;30771;47.988;-4.186;2024-03-06T13:19:27;15.07;;;3.63;;
45033;SDS011;30771;47.988;-4.186;2024-03-06T13:21:54;17.52;;;3.33;;
45033;SDS011;30771;47.988;-4.186;2024-03-06T13:24:21;20.85;;;3.38;;
45033;SDS011;30771;47.988;-4.186;2024-03-06T13:26:48;15.82;;;3.88;;
45033;SDS011;30771;47.988;-4.186;2024-03-06T13:29:15;17.13;;;3.00;;
45033;SDS011;30771;47.988;-4.186;2024-03-06T13:31:43;25.02;;;4.18;;
45033;SDS011;30771;47.988;-4.186;2024-03-06T13:34:12;14.68;;;3.22;;
45033;SDS011;30771;47.988;-4.186;2024-03-06T13:36:38;16.63;;;3.33;;
45033;SDS011;30771;47.988;-4.186;2024-03-06T13:39:08;17.27;;;2.70;;
45033;SDS011;30771;47.988;-4.186;2024-03-06T13:41:36;13.13;;;2.83;;
45033;SDS011;30771;47.988;-4.186;2024-03-06T13:44:04;13.68;;;2.28;;
45033;SDS011;30771;47.988;-4.186;2024-03-06T13:46:37;14.52;;;2.65;;
45033;SDS011;30771;47.988;-4.186;2024-03-06T13:49:07;17.02;;;2.33;;
45033;SDS011;30771;47.988;-4.186;2024-03-06T13:51:40;7.28;;;1.67;;
45033;SDS011;30771;47.988;-4.186;2024-03-06T13:54:07;14.45;;;1.83;;
45033;SDS011;30771;47.988;-4.186;2024-03-06T13:56:34;18.23;;;2.58;;
45033;SDS011;30771;47.988;-4.186;2024-03-06T13:59:01;15.95;;;5.57;;
45033;SDS011;30771;47.988;-4.186;2024-03-06T14:01:28;14.90;;;3.90;;
45033;SDS011;30771;47.988;-4.186;2024-03-06T14:03:55;17.55;;;3.40;;
45033;SDS011;30771;47.988;-4.186;2024-03-06T14:06:22;15.82;;;1.90;;
45033;SDS011;30771;47.988;-4.186;2024-03-06T14:08:48;12.93;;;2.47;;
45033;SDS011;30771;47.988;-4.186;2024-03-06T14:11:15;12.70;;;2.05;;
45033;SDS011;30771;47.988;-4.186;2024-03-06T14:13:42;17.13;;;3.65;;
45033;SDS011;30771;47.988;-4.186;2024-03-06T14:16:09;12.95;;;2.17;;
45033;SDS011;30771;47.988;-4.186;2024-03-06T14:18:36;15.82;;;3.83;;
45033;SDS011;30771;47.988;-4.186;2024-03-06T14:21:04;13.77;;;2.90;;
45033;SDS011;30771;47.988;-4.186;2024-03-06T14:23:31;14.40;;;3.33;;
45033;SDS011;30771;47.988;-4.186;2024-03-06T14:25:59;13.77;;;2.50;;
45033;SDS011;30771;47.988;-4.186;2024-03-06T14:28:25;13.20;;;3.63;;
45033;SDS011;30771;47.988;-4.186;2024-03-06T14:30:52;14.90;;;3.03;;
45033;SDS011;30771;47.988;-4.186;2024-03-06T14:33:19;23.38;;;3.13;;
45033;SDS011;30771;47.988;-4.186;2024-03-06T14:35:46;14.35;;;2.28;;
45033;SDS011;30771;47.988;-4.186;2024-03-06T14:38:17;22.27;;;3.17;;
45033;SDS011;30771;47.988;-4.186;2024-03-06T14:40:44;11.57;;;2.55;;
45033;SDS011;30771;47.988;-4.186;2024-03-06T14:43:10;11.82;;;2.40;;
45033;SDS011;30771;47.988;-4.186;2024-03-06T14:45:38;10.63;;;2.43;;
45033;SDS011;30771;47.988;-4.186;2024-03-06T14:48:09;19.85;;;2.85;;
45033;SDS011;30771;47.988;-4.186;2024-03-06T14:50:36;12.20;;;2.53;;
45033;SDS011;30771;47.988;-4.186;2024-03-06T14:53:02;15.25;;;3.17;;
45033;SDS011;30771;47.988;-4.186;2024-03-06T14:55:29;19.45;;;4.20;;
45033;SDS011;30771;47.988;-4.186;2024-03-06T14:57:56;16.58;;;2.40;;